Página principal
METAR-TAF:

METAR-TAF

Aeroportos :

Sault Ste. Marie Municipal Airport (Sanderson Field)

Sault Ste. Marie, Michigan, Estados Unidos

latitude: 46-28-46N, longitude: 084-21-26W, altura: 210 m

Observação actual do tempo

O boletim foi feito há 14 minutos, às 20:55 UTC
Vento 10 kt de noroeste com rajadas de 15 kt
Temperatura 25°C
Humidade 57%
Pressão 1011 hPa
Visibilidade: 16.1 km
Céu limpo

METAR: KANJ 272055Z AUTO 32010G15KT 10SM CLR 25/16 A2984 RMK AO2 SLP102 T02500161 51003

Hora: 17:09 (21:09 UTC)


TAF: em falta

Observações e previsões do tempo de mais de 4000 aeroportos (mensagens METAR e TAF).

As estações disponíveis são os pontos amarelos e vermelhos sobre o mapa.

Mova o rato sobre o mapa para ver o nome da estação.

Depois clique no ponto para visualizar as observações e previsões meteorológicas.

Para alterar o mapa : clique nos botões verdes com uma cruz preta para aumentar o zoom; no botão verde com uma pitada de zoom; ou nas setas verdes para mapas adjacentes.


METAR-TAF: